sensor_id;sensor_type;location;lat;lon;timestamp;pressure;altitude;pressure_sealevel;temperature;humidity
70684;BME280;58263;48.146;11.440;2023-08-31T00:01:02;95138.94;;;14.09;75.49
70684;BME280;58263;48.146;11.440;2023-08-31T00:03:31;95137.31;;;14.13;75.95
70684;BME280;58263;48.146;11.440;2023-08-31T00:05:57;95137.56;;;14.01;75.37
70684;BME280;58263;48.146;11.440;2023-08-31T00:08:22;95141.63;;;13.99;75.17
70684;BME280;58263;48.146;11.440;2023-08-31T00:10:55;95144.88;;;14.01;74.75
70684;BME280;58263;48.146;11.440;2023-08-31T00:13:21;95145.69;;;13.96;76.00
70684;BME280;58263;48.146;11.440;2023-08-31T00:15:46;95149.16;;;13.97;75.34
70684;BME280;58263;48.146;11.440;2023-08-31T00:18:11;95138.94;;;13.94;75.39
70684;BME280;58263;48.146;11.440;2023-08-31T00:20:38;95144.84;;;13.91;75.01
70684;BME280;58263;48.146;11.440;2023-08-31T00:23:03;95142.69;;;13.88;75.80
70684;BME280;58263;48.146;11.440;2023-08-31T00:25:28;95148.03;;;13.82;75.85
70684;BME280;58263;48.146;11.440;2023-08-31T00:27:54;95146.44;;;13.81;75.78
70684;BME280;58263;48.146;11.440;2023-08-31T00:30:20;95152.94;;;13.85;76.05
70684;BME280;58263;48.146;11.440;2023-08-31T00:32:45;95146.44;;;13.81;75.59
70684;BME280;58263;48.146;11.440;2023-08-31T00:35:12;95139.97;;;13.77;76.08
70684;BME280;58263;48.146;11.440;2023-08-31T00:37:37;95152.88;;;13.75;75.16
70684;BME280;58263;48.146;11.440;2023-08-31T00:40:04;95149.91;;;13.66;75.13
70684;BME280;58263;48.146;11.440;2023-08-31T00:42:30;95150.72;;;13.67;75.40
70684;BME280;58263;48.146;11.440;2023-08-31T00:44:56;95145.31;;;13.67;75.54
70684;BME280;58263;48.146;11.440;2023-08-31T00:47:21;95152.63;;;13.72;75.77
70684;BME280;58263;48.146;11.440;2023-08-31T00:49:48;95146.41;;;13.71;75.86
70684;BME280;58263;48.146;11.440;2023-08-31T00:52:14;95149.66;;;13.73;76.21
70684;BME280;58263;48.146;11.440;2023-08-31T00:54:40;95155.06;;;13.73;75.84
70684;BME280;58263;48.146;11.440;2023-08-31T00:57:07;95148.56;;;13.69;76.20
70684;BME280;58263;48.146;11.440;2023-08-31T00:59:32;95148.56;;;13.69;76.56
70684;BME280;58263;48.146;11.440;2023-08-31T01:02:33;95150.44;;;13.63;76.72
70684;BME280;58263;48.146;11.440;2023-08-31T01:05:09;95152.03;;;13.64;76.11
70684;BME280;58263;48.146;11.440;2023-08-31T01:10:19;95144.75;;;13.60;75.84
70684;BME280;58263;48.146;11.440;2023-08-31T01:12:51;95137.50;;;13.65;75.66
70684;BME280;58263;48.146;11.440;2023-08-31T01:15:19;95139.09;;;13.61;76.26
70684;BME280;58263;48.146;11.440;2023-08-31T01:17:47;95141.00;;;13.66;75.68
70684;BME280;58263;48.146;11.440;2023-08-31T01:20:14;95138.84;;;13.68;75.82
70684;BME280;58263;48.146;11.440;2023-08-31T01:23:04;95138.31;;;13.61;75.88
70684;BME280;58263;48.146;11.440;2023-08-31T01:25:32;95148.00;;;13.62;75.80
70684;BME280;58263;48.146;11.440;2023-08-31T01:27:58;95146.63;;;13.59;75.68
70684;BME280;58263;48.146;11.440;2023-08-31T01:30:24;95146.94;;;13.68;75.72
70684;BME280;58263;48.146;11.440;2023-08-31T01:32:49;95154.22;;;13.67;74.79
70684;BME280;58263;48.146;11.440;2023-08-31T01:35:17;95149.63;;;13.68;75.97
70684;BME280;58263;48.146;11.440;2023-08-31T01:37:50;95147.50;;;13.75;75.60
70684;BME280;58263;48.146;11.440;2023-08-31T01:40:20;95149.16;;;13.86;75.60
70684;BME280;58263;48.146;11.440;2023-08-31T01:42:46;95148.63;;;13.95;75.70
70684;BME280;58263;48.146;11.440;2023-08-31T01:45:14;95150.50;;;13.94;75.29
70684;BME280;58263;48.146;11.440;2023-08-31T01:47:40;95148.63;;;14.00;76.23
70684;BME280;58263;48.146;11.440;2023-08-31T01:50:06;95151.34;;;14.05;75.69
70684;BME280;58263;48.146;11.440;2023-08-31T01:52:31;95154.84;;;14.11;76.12
70684;BME280;58263;48.146;11.440;2023-08-31T01:54:56;95160.81;;;14.13;76.12
70684;BME280;58263;48.146;11.440;2023-08-31T01:57:22;95165.63;;;14.11;75.84
70684;BME280;58263;48.146;11.440;2023-08-31T01:59:47;95165.91;;;14.09;75.56
70684;BME280;58263;48.146;11.440;2023-08-31T02:02:12;95169.69;;;14.13;76.18
70684;BME280;58263;48.146;11.440;2023-08-31T02:04:38;95170.25;;;14.15;74.89
70684;BME280;58263;48.146;11.440;2023-08-31T02:07:03;95174.31;;;14.28;75.02
70684;BME280;58263;48.146;11.440;2023-08-31T02:09:28;95178.88;;;14.23;75.01
70684;BME280;58263;48.146;11.440;2023-08-31T02:11:54;95183.19;;;14.29;75.03
70684;BME280;58263;48.146;11.440;2023-08-31T02:14:19;95188.88;;;14.22;74.62
70684;BME280;58263;48.146;11.440;2023-08-31T02:16:44;95189.94;;;14.31;75.33
70684;BME280;58263;48.146;11.440;2023-08-31T02:19:10;95197.81;;;14.33;74.46
70684;BME280;58263;48.146;11.440;2023-08-31T02:21:35;95203.44;;;14.31;75.01
70684;BME280;58263;48.146;11.440;2023-08-31T02:24:00;95210.16;;;14.29;74.96
70684;BME280;58263;48.146;11.440;2023-08-31T02:26:25;95216.16;;;14.36;76.44
70684;BME280;58263;48.146;11.440;2023-08-31T02:28:51;95228.81;;;14.30;79.75
70684;BME280;58263;48.146;11.440;2023-08-31T02:31:17;95236.59;;;14.16;82.01
70684;BME280;58263;48.146;11.440;2023-08-31T02:33:43;95249.75;;;14.02;83.30
70684;BME280;58263;48.146;11.440;2023-08-31T02:36:08;95244.16;;;14.14;84.22
70684;BME280;58263;48.146;11.440;2023-08-31T02:38:33;95232.53;;;14.09;85.06
70684;BME280;58263;48.146;11.440;2023-08-31T02:40:59;95230.09;;;14.07;84.95
70684;BME280;58263;48.146;11.440;2023-08-31T02:43:24;95230.38;;;14.11;85.48
70684;BME280;58263;48.146;11.440;2023-08-31T02:45:58;95227.16;;;14.09;86.12
70684;BME280;58263;48.146;11.440;2023-08-31T02:48:23;95232.81;;;14.07;86.39
70684;BME280;58263;48.146;11.440;2023-08-31T02:50:48;95245.72;;;14.05;85.99
70684;BME280;58263;48.146;11.440;2023-08-31T02:53:13;95241.94;;;14.01;87.57
70684;BME280;58263;48.146;11.440;2023-08-31T02:55:39;95240.31;;;14.00;87.44
70684;BME280;58263;48.146;11.440;2023-08-31T02:58:04;95227.38;;;14.02;86.99
70684;BME280;58263;48.146;11.440;2023-08-31T03:00:29;95239.50;;;13.99;87.47
70684;BME280;58263;48.146;11.440;2023-08-31T03:02:54;95242.47;;;13.98;88.28
70684;BME280;58263;48.146;11.440;2023-08-31T03:05:20;95233.03;;;13.95;87.37
70684;BME280;58263;48.146;11.440;2023-08-31T03:07:48;95236.47;;;13.80;87.40
70684;BME280;58263;48.146;11.440;2023-08-31T03:10:13;95228.41;;;13.85;88.71
70684;BME280;58263;48.146;11.440;2023-08-31T03:12:38;95234.31;;;13.82;87.34
70684;BME280;58263;48.146;11.440;2023-08-31T03:15:05;95239.69;;;13.82;87.30
70684;BME280;58263;48.146;11.440;2023-08-31T03:17:31;95232.94;;;13.75;87.79
70684;BME280;58263;48.146;11.440;2023-08-31T03:19:56;95237.28;;;13.76;88.05
70684;BME280;58263;48.146;11.440;2023-08-31T03:22:21;95239.72;;;13.77;88.21
70684;BME280;58263;48.146;11.440;2023-08-31T03:24:46;95245.59;;;13.69;88.21
70684;BME280;58263;48.146;11.440;2023-08-31T03:27:12;95243.44;;;13.71;89.02
70684;BME280;58263;48.146;11.440;2023-08-31T03:29:37;95245.09;;;13.77;88.31
70684;BME280;58263;48.146;11.440;2023-08-31T03:32:03;95249.13;;;13.75;88.92
70684;BME280;58263;48.146;11.440;2023-08-31T03:34:29;95255.88;;;13.77;87.31
70684;BME280;58263;48.146;11.440;2023-08-31T03:36:55;95258.50;;;13.67;87.65
70684;BME280;58263;48.146;11.440;2023-08-31T03:39:20;95260.69;;;13.70;88.01
70684;BME280;58263;48.146;11.440;2023-08-31T03:41:46;95270.34;;;13.66;87.54
70684;BME280;58263;48.146;11.440;2023-08-31T03:44:11;95275.44;;;13.57;87.84
70684;BME280;58263;48.146;11.440;2023-08-31T03:46:36;95273.00;;;13.56;87.24
70684;BME280;58263;48.146;11.440;2023-08-31T03:49:02;95267.13;;;13.64;87.84
70684;BME280;58263;48.146;11.440;2023-08-31T03:51:27;95267.94;;;13.64;88.05
70684;BME280;58263;48.146;11.440;2023-08-31T03:53:53;95267.09;;;13.59;88.15
70684;BME280;58263;48.146;11.440;2023-08-31T03:56:20;95278.72;;;13.64;88.48
70684;BME280;58263;48.146;11.440;2023-08-31T03:58:45;95279.47;;;13.55;88.33
70684;BME280;58263;48.146;11.440;2023-08-31T04:01:10;95287.28;;;13.56;88.47
70684;BME280;58263;48.146;11.440;2023-08-31T04:03:35;95283.03;;;13.65;88.12
70684;BME280;58263;48.146;11.440;2023-08-31T04:06:01;95275.22;;;13.64;88.05
70684;BME280;58263;48.146;11.440;2023-08-31T04:08:26;95279.50;;;13.60;88.32
70684;BME280;58263;48.146;11.440;2023-08-31T04:10:51;95283.56;;;13.62;88.23
70684;BME280;58263;48.146;11.440;2023-08-31T04:13:16;95284.31;;;13.58;89.17
70684;BME280;58263;48.146;11.440;2023-08-31T04:15:42;95291.38;;;13.64;88.28
70684;BME280;58263;48.146;11.440;2023-08-31T04:18:07;95297.31;;;13.61;88.46
70684;BME280;58263;48.146;11.440;2023-08-31T04:20:33;95302.94;;;13.59;88.65
70684;BME280;58263;48.146;11.440;2023-08-31T04:22:58;95296.75;;;13.59;88.40
70684;BME280;58263;48.146;11.440;2023-08-31T04:25:23;95298.09;;;13.61;87.80
70684;BME280;58263;48.146;11.440;2023-08-31T04:27:49;95296.47;;;13.60;88.34
70684;BME280;58263;48.146;11.440;2023-08-31T04:30:14;95301.88;;;13.60;88.31
70684;BME280;58263;48.146;11.440;2023-08-31T04:32:40;95311.28;;;13.58;88.06
70684;BME280;58263;48.146;11.440;2023-08-31T04:35:06;95317.50;;;13.58;88.25
70684;BME280;58263;48.146;11.440;2023-08-31T04:37:32;95316.41;;;13.59;87.33
70684;BME280;58263;48.146;11.440;2023-08-31T04:39:57;95318.28;;;13.59;87.98
70684;BME280;58263;48.146;11.440;2023-08-31T04:42:23;95322.31;;;13.56;87.22
70684;BME280;58263;48.146;11.440;2023-08-31T04:44:49;95331.78;;;13.59;87.48
70684;BME280;58263;48.146;11.440;2023-08-31T04:47:14;95331.25;;;13.62;88.13
70684;BME280;58263;48.146;11.440;2023-08-31T04:49:40;95335.53;;;13.58;87.55
70684;BME280;58263;48.146;11.440;2023-08-31T04:52:05;95333.94;;;13.57;87.80
70684;BME280;58263;48.146;11.440;2023-08-31T04:54:31;95344.47;;;13.63;87.24
70684;BME280;58263;48.146;11.440;2023-08-31T04:56:56;95342.56;;;13.59;88.26
70684;BME280;58263;48.146;11.440;2023-08-31T04:59:21;95342.03;;;13.62;87.63
70684;BME280;58263;48.146;11.440;2023-08-31T05:01:46;95344.72;;;13.57;88.38
70684;BME280;58263;48.146;11.440;2023-08-31T05:04:12;95351.19;;;13.61;89.06
70684;BME280;58263;48.146;11.440;2023-08-31T05:06:37;95340.44;;;13.66;87.36
70684;BME280;58263;48.146;11.440;2023-08-31T05:09:02;95353.41;;;13.69;88.20
70684;BME280;58263;48.146;11.440;2023-08-31T05:11:28;95360.41;;;13.70;87.82
70684;BME280;58263;48.146;11.440;2023-08-31T05:13:53;95359.28;;;13.61;86.85
70684;BME280;58263;48.146;11.440;2023-08-31T05:16:18;95354.16;;;13.64;87.75
70684;BME280;58263;48.146;11.440;2023-08-31T05:18:44;95357.97;;;13.68;87.56
70684;BME280;58263;48.146;11.440;2023-08-31T05:21:09;95369.06;;;13.72;87.73
70684;BME280;58263;48.146;11.440;2023-08-31T05:23:34;95356.41;;;13.78;87.27
70684;BME280;58263;48.146;11.440;2023-08-31T05:26:00;95352.09;;;13.77;87.26
70684;BME280;58263;48.146;11.440;2023-08-31T05:28:26;95357.53;;;13.82;87.79
70684;BME280;58263;48.146;11.440;2023-08-31T05:30:55;95351.88;;;13.83;87.12
70684;BME280;58263;48.146;11.440;2023-08-31T05:33:20;95360.56;;;13.91;86.53
70684;BME280;58263;48.146;11.440;2023-08-31T05:35:47;95359.47;;;13.92;87.72
70684;BME280;58263;48.146;11.440;2023-08-31T05:38:13;95366.81;;;14.07;86.55
70684;BME280;58263;48.146;11.440;2023-08-31T05:40:38;95363.84;;;14.08;87.34
70684;BME280;58263;48.146;11.440;2023-08-31T05:43:04;95365.53;;;14.14;86.93
70684;BME280;58263;48.146;11.440;2023-08-31T05:45:33;95379.84;;;14.20;86.96
70684;BME280;58263;48.146;11.440;2023-08-31T05:47:58;95381.75;;;14.19;87.16
70684;BME280;58263;48.146;11.440;2023-08-31T05:50:24;95381.22;;;14.28;86.03
70684;BME280;58263;48.146;11.440;2023-08-31T05:52:50;95387.13;;;14.25;85.52
70684;BME280;58263;48.146;11.440;2023-08-31T05:55:15;95385.53;;;14.24;86.20
70684;BME280;58263;48.146;11.440;2023-08-31T05:57:40;95382.59;;;14.30;86.66
70684;BME280;58263;48.146;11.440;2023-08-31T06:00:06;95380.72;;;14.36;86.73
70684;BME280;58263;48.146;11.440;2023-08-31T06:02:34;95389.91;;;14.40;86.32
70684;BME280;58263;48.146;11.440;2023-08-31T06:05:01;95385.09;;;14.47;85.70
70684;BME280;58263;48.146;11.440;2023-08-31T06:07:26;95389.69;;;14.47;84.44
70684;BME280;58263;48.146;11.440;2023-08-31T06:09:51;95398.34;;;14.54;84.45
70684;BME280;58263;48.146;11.440;2023-08-31T06:12:16;95393.25;;;14.63;84.62
70684;BME280;58263;48.146;11.440;2023-08-31T06:14:42;95390.59;;;14.68;84.57
70684;BME280;58263;48.146;11.440;2023-08-31T06:17:07;95401.41;;;14.73;83.73
70684;BME280;58263;48.146;11.440;2023-08-31T06:19:33;95398.16;;;14.76;84.54
70684;BME280;58263;48.146;11.440;2023-08-31T06:21:59;95392.75;;;14.76;83.41
70684;BME280;58263;48.146;11.440;2023-08-31T06:24:24;95393.31;;;14.73;83.30
70684;BME280;58263;48.146;11.440;2023-08-31T06:26:49;95394.69;;;14.86;83.15
70684;BME280;58263;48.146;11.440;2023-08-31T06:29:14;95401.72;;;14.92;84.42
70684;BME280;58263;48.146;11.440;2023-08-31T06:31:40;95400.38;;;14.90;82.68
70684;BME280;58263;48.146;11.440;2023-08-31T06:34:05;95407.38;;;14.85;82.22
70684;BME280;58263;48.146;11.440;2023-08-31T06:36:30;95410.09;;;14.85;82.47
70684;BME280;58263;48.146;11.440;2023-08-31T06:38:56;95414.16;;;14.93;83.51
70684;BME280;58263;48.146;11.440;2023-08-31T06:41:21;95415.53;;;14.96;83.39
70684;BME280;58263;48.146;11.440;2023-08-31T06:43:46;95412.25;;;14.94;84.00
70684;BME280;58263;48.146;11.440;2023-08-31T06:46:11;95414.66;;;14.90;82.59
70684;BME280;58263;48.146;11.440;2023-08-31T06:48:37;95415.53;;;15.06;82.83
70684;BME280;58263;48.146;11.440;2023-08-31T06:51:02;95412.03;;;15.16;82.73
70684;BME280;58263;48.146;11.440;2023-08-31T06:53:29;95422.31;;;15.24;82.26
70684;BME280;58263;48.146;11.440;2023-08-31T06:55:54;95417.47;;;15.31;82.19
70684;BME280;58263;48.146;11.440;2023-08-31T06:58:19;95423.16;;;15.45;80.09
70684;BME280;58263;48.146;11.440;2023-08-31T07:00:45;95429.63;;;15.44;79.70
70684;BME280;58263;48.146;11.440;2023-08-31T07:03:11;95430.47;;;15.55;79.43
70684;BME280;58263;48.146;11.440;2023-08-31T07:05:41;95431.00;;;15.62;79.46
70684;BME280;58263;48.146;11.440;2023-08-31T07:08:07;95424.50;;;15.68;79.59
70684;BME280;58263;48.146;11.440;2023-08-31T07:10:33;95432.88;;;15.77;79.06
70684;BME280;58263;48.146;11.440;2023-08-31T07:13:01;95427.22;;;15.74;79.21
70684;BME280;58263;48.146;11.440;2023-08-31T07:15:27;95426.94;;;15.70;77.67
70684;BME280;58263;48.146;11.440;2023-08-31T07:17:52;95437.22;;;15.73;75.46
70684;BME280;58263;48.146;11.440;2023-08-31T07:20:17;95437.22;;;15.94;75.56
70684;BME280;58263;48.146;11.440;2023-08-31T07:22:43;95437.78;;;16.06;74.44
70684;BME280;58263;48.146;11.440;2023-08-31T07:25:08;95440.72;;;16.20;74.56
70684;BME280;58263;48.146;11.440;2023-08-31T07:27:34;95445.59;;;16.23;74.32
70684;BME280;58263;48.146;11.440;2023-08-31T07:29:59;95446.66;;;16.17;72.85
70684;BME280;58263;48.146;11.440;2023-08-31T07:32:24;95452.34;;;16.31;72.70
70684;BME280;58263;48.146;11.440;2023-08-31T07:34:49;95455.00;;;16.46;73.10
70684;BME280;58263;48.146;11.440;2023-08-31T07:37:15;95461.78;;;16.44;72.09
70684;BME280;58263;48.146;11.440;2023-08-31T07:39:40;95465.25;;;16.60;72.04
70684;BME280;58263;48.146;11.440;2023-08-31T07:42:05;95463.19;;;16.31;70.32
70684;BME280;58263;48.146;11.440;2023-08-31T07:44:31;95458.28;;;16.38;72.23
70684;BME280;58263;48.146;11.440;2023-08-31T07:46:56;95466.41;;;16.43;70.51
70684;BME280;58263;48.146;11.440;2023-08-31T07:49:22;95459.88;;;16.49;70.18
70684;BME280;58263;48.146;11.440;2023-08-31T07:51:47;95456.31;;;16.64;68.37
70684;BME280;58263;48.146;11.440;2023-08-31T07:54:19;95455.44;;;16.74;67.45
70684;BME280;58263;48.146;11.440;2023-08-31T07:56:44;95463.19;;;17.06;65.83
70684;BME280;58263;48.146;11.440;2023-08-31T07:59:10;95465.00;;;17.27;65.42
70684;BME280;58263;48.146;11.440;2023-08-31T08:01:35;95462.72;;;17.44;66.44
70684;BME280;58263;48.146;11.440;2023-08-31T08:04:01;95461.22;;;17.22;65.00
70684;BME280;58263;48.146;11.440;2023-08-31T08:06:26;95460.31;;;17.37;64.61
70684;BME280;58263;48.146;11.440;2023-08-31T08:08:51;95466.63;;;17.67;65.32
70684;BME280;58263;48.146;11.440;2023-08-31T08:11:16;95471.94;;;17.83;63.23
70684;BME280;58263;48.146;11.440;2023-08-31T08:13:42;95473.50;;;17.94;64.36
70684;BME280;58263;48.146;11.440;2023-08-31T08:16:07;95477.16;;;17.74;64.80
70684;BME280;58263;48.146;11.440;2023-08-31T08:18:34;95477.00;;;17.60;64.13
70684;BME280;58263;48.146;11.440;2023-08-31T08:20:59;95490.06;;;17.48;64.31
70684;BME280;58263;48.146;11.440;2023-08-31T08:23:24;95487.75;;;17.31;65.55
70684;BME280;58263;48.146;11.440;2023-08-31T08:25:50;95491.91;;;17.13;65.72
70684;BME280;58263;48.146;11.440;2023-08-31T08:28:15;95505.19;;;17.09;66.04
70684;BME280;58263;48.146;11.440;2023-08-31T08:30:40;95498.72;;;17.05;66.43
70684;BME280;58263;48.146;11.440;2023-08-31T08:33:05;95499.75;;;17.14;65.30
70684;BME280;58263;48.146;11.440;2023-08-31T08:35:31;95499.44;;;17.26;64.73
70684;BME280;58263;48.146;11.440;2023-08-31T08:37:56;95502.38;;;17.35;65.43
70684;BME280;58263;48.146;11.440;2023-08-31T08:40:21;95508.03;;;17.38;64.52
70684;BME280;58263;48.146;11.440;2023-08-31T08:42:47;95505.34;;;17.38;64.42
70684;BME280;58263;48.146;11.440;2023-08-31T08:45:13;95504.19;;;17.45;65.02
70684;BME280;58263;48.146;11.440;2023-08-31T08:47:40;95505.63;;;17.37;63.19
70684;BME280;58263;48.146;11.440;2023-08-31T08:50:07;95496.44;;;17.28;62.22
70684;BME280;58263;48.146;11.440;2023-08-31T08:52:33;95492.81;;;17.87;60.98
70684;BME280;58263;48.146;11.440;2023-08-31T08:54:59;95497.56;;;18.06;60.93
70684;BME280;58263;48.146;11.440;2023-08-31T08:57:25;95500.88;;;17.98;61.58
70684;BME280;58263;48.146;11.440;2023-08-31T08:59:51;95509.47;;;18.10;61.57
70684;BME280;58263;48.146;11.440;2023-08-31T09:02:16;95508.47;;;18.01;59.68
70684;BME280;58263;48.146;11.440;2023-08-31T09:04:41;95517.03;;;18.13;60.65
70684;BME280;58263;48.146;11.440;2023-08-31T09:07:07;95516.59;;;18.01;61.72
70684;BME280;58263;48.146;11.440;2023-08-31T09:09:32;95521.41;;;18.09;61.46
70684;BME280;58263;48.146;11.440;2023-08-31T09:12:06;95519.09;;;17.97;61.08
70684;BME280;58263;48.146;11.440;2023-08-31T09:14:32;95527.47;;;18.01;62.05
70684;BME280;58263;48.146;11.440;2023-08-31T09:16:58;95528.81;;;17.98;63.06
70684;BME280;58263;48.146;11.440;2023-08-31T09:19:24;95522.09;;;17.96;60.70
70684;BME280;58263;48.146;11.440;2023-08-31T09:21:51;95527.25;;;17.92;61.11
70684;BME280;58263;48.146;11.440;2023-08-31T09:24:17;95529.34;;;18.05;61.30
70684;BME280;58263;48.146;11.440;2023-08-31T09:27:03;95526.97;;;17.94;61.14
70684;BME280;58263;48.146;11.440;2023-08-31T09:29:30;95520.09;;;18.06;61.45
70684;BME280;58263;48.146;11.440;2023-08-31T09:31:56;95525.88;;;18.29;61.86
70684;BME280;58263;48.146;11.440;2023-08-31T09:34:33;95533.00;;;18.54;60.81
70684;BME280;58263;48.146;11.440;2023-08-31T09:37:04;95519.97;;;19.05;60.28
70684;BME280;58263;48.146;11.440;2023-08-31T09:39:35;95519.13;;;19.29;59.60
70684;BME280;58263;48.146;11.440;2023-08-31T09:42:00;95527.19;;;19.39;58.22
70684;BME280;58263;48.146;11.440;2023-08-31T09:44:28;95519.03;;;19.39;58.36
70684;BME280;58263;48.146;11.440;2023-08-31T09:46:53;95527.84;;;19.31;57.27
70684;BME280;58263;48.146;11.440;2023-08-31T09:49:20;95521.41;;;18.97;57.68
70684;BME280;58263;48.146;11.440;2023-08-31T09:51:47;95531.53;;;18.91;59.27
70684;BME280;58263;48.146;11.440;2023-08-31T09:54:15;95524.44;;;18.96;58.99
70684;BME280;58263;48.146;11.440;2023-08-31T09:56:43;95527.31;;;18.80;57.58
70684;BME280;58263;48.146;11.440;2023-08-31T09:59:10;95522.97;;;18.79;58.85
70684;BME280;58263;48.146;11.440;2023-08-31T10:01:36;95524.69;;;18.70;58.39
70684;BME280;58263;48.146;11.440;2023-08-31T10:04:02;95528.28;;;18.89;57.66
70684;BME280;58263;48.146;11.440;2023-08-31T10:06:29;95514.59;;;19.00;59.34
70684;BME280;58263;48.146;11.440;2023-08-31T10:08:54;95526.56;;;18.99;59.03
70684;BME280;58263;48.146;11.440;2023-08-31T10:11:21;95528.44;;;18.74;57.30
70684;BME280;58263;48.146;11.440;2023-08-31T10:13:48;95520.81;;;19.24;56.73
70684;BME280;58263;48.146;11.440;2023-08-31T10:16:14;95520.44;;;19.74;56.34
70684;BME280;58263;48.146;11.440;2023-08-31T10:18:40;95512.28;;;19.74;56.42
70684;BME280;58263;48.146;11.440;2023-08-31T10:21:06;95509.75;;;19.59;55.35
70684;BME280;58263;48.146;11.440;2023-08-31T10:23:32;95510.31;;;19.37;55.49
70684;BME280;58263;48.146;11.440;2023-08-31T10:28:23;95512.81;;;18.90;57.42
70684;BME280;58263;48.146;11.440;2023-08-31T10:31:06;95516.63;;;18.89;58.31
70684;BME280;58263;48.146;11.440;2023-08-31T10:33:42;95517.16;;;18.91;58.91
70684;BME280;58263;48.146;11.440;2023-08-31T10:36:19;95517.06;;;18.72;58.63
70684;BME280;58263;48.146;11.440;2023-08-31T10:38:46;95514.94;;;18.93;58.50
70684;BME280;58263;48.146;11.440;2023-08-31T10:43:54;95517.22;;;19.29;58.29
70684;BME280;58263;48.146;11.440;2023-08-31T10:46:36;95518.47;;;18.94;57.34
70684;BME280;58263;48.146;11.440;2023-08-31T10:51:41;95514.16;;;21.34;52.53
70684;BME280;58263;48.146;11.440;2023-08-31T10:54:10;95514.25;;;21.01;50.97
70684;BME280;58263;48.146;11.440;2023-08-31T10:59:16;95522.03;;;20.80;52.10
70684;BME280;58263;48.146;11.440;2023-08-31T11:04:18;95520.03;;;20.52;53.66
70684;BME280;58263;48.146;11.440;2023-08-31T11:06:43;95522.44;;;19.88;54.41
70684;BME280;58263;48.146;11.440;2023-08-31T11:09:21;95527.88;;;19.69;54.96
70684;BME280;58263;48.146;11.440;2023-08-31T11:11:47;95529.31;;;19.42;56.63
70684;BME280;58263;48.146;11.440;2023-08-31T11:14:14;95528.28;;;19.14;55.68
70684;BME280;58263;48.146;11.440;2023-08-31T11:16:39;95528.69;;;19.26;54.82
70684;BME280;58263;48.146;11.440;2023-08-31T11:19:05;95525.16;;;19.25;54.94
70684;BME280;58263;48.146;11.440;2023-08-31T11:21:30;95528.94;;;19.30;54.17
70684;BME280;58263;48.146;11.440;2023-08-31T11:23:58;95530.66;;;19.64;53.68
70684;BME280;58263;48.146;11.440;2023-08-31T11:26:26;95525.91;;;19.93;52.21
70684;BME280;58263;48.146;11.440;2023-08-31T11:28:51;95520.53;;;20.21;52.48
70684;BME280;58263;48.146;11.440;2023-08-31T11:31:26;95536.22;;;20.30;52.53
70684;BME280;58263;48.146;11.440;2023-08-31T11:33:51;95538.66;;;20.12;52.69
70684;BME280;58263;48.146;11.440;2023-08-31T11:36:17;95538.91;;;19.97;53.64
70684;BME280;58263;48.146;11.440;2023-08-31T11:38:48;95552.59;;;19.91;54.49
70684;BME280;58263;48.146;11.440;2023-08-31T11:41:13;95545.44;;;20.15;53.63
70684;BME280;58263;48.146;11.440;2023-08-31T11:43:39;95545.13;;;20.16;54.27
70684;BME280;58263;48.146;11.440;2023-08-31T11:46:05;95551.47;;;20.12;54.25
70684;BME280;58263;48.146;11.440;2023-08-31T11:48:31;95554.44;;;20.15;54.63
70684;BME280;58263;48.146;11.440;2023-08-31T11:50:57;95556.63;;;20.13;51.94
70684;BME280;58263;48.146;11.440;2023-08-31T11:53:23;95549.56;;;20.12;53.13
70684;BME280;58263;48.146;11.440;2023-08-31T11:55:50;95539.28;;;19.90;53.12
70684;BME280;58263;48.146;11.440;2023-08-31T11:58:16;95545.53;;;19.90;52.90
70684;BME280;58263;48.146;11.440;2023-08-31T12:00:43;95544.66;;;21.22;49.11
70684;BME280;58263;48.146;11.440;2023-08-31T12:03:08;95550.69;;;22.79;46.45
70684;BME280;58263;48.146;11.440;2023-08-31T12:05:47;95543.16;;;24.61;43.36
70684;BME280;58263;48.146;11.440;2023-08-31T12:08:13;95550.88;;;26.14;39.98
70684;BME280;58263;48.146;11.440;2023-08-31T12:10:40;95552.16;;;27.79;35.27
70684;BME280;58263;48.146;11.440;2023-08-31T12:13:10;95542.34;;;30.03;32.97
70684;BME280;58263;48.146;11.440;2023-08-31T12:15:35;95548.00;;;30.65;30.54
70684;BME280;58263;48.146;11.440;2023-08-31T12:18:08;95555.00;;;29.37;31.64
70684;BME280;58263;48.146;11.440;2023-08-31T12:20:33;95546.69;;;29.53;32.01
70684;BME280;58263;48.146;11.440;2023-08-31T12:23:07;95544.97;;;30.15;31.93
70684;BME280;58263;48.146;11.440;2023-08-31T12:25:33;95546.09;;;28.26;33.17
70684;BME280;58263;48.146;11.440;2023-08-31T12:27:58;95547.31;;;27.26;34.09
70684;BME280;58263;48.146;11.440;2023-08-31T12:30:23;95539.41;;;28.68;33.88
70684;BME280;58263;48.146;11.440;2023-08-31T12:32:51;95542.03;;;28.08;33.40
70684;BME280;58263;48.146;11.440;2023-08-31T12:35:16;95535.88;;;28.99;31.89
70684;BME280;58263;48.146;11.440;2023-08-31T12:37:42;95545.75;;;27.75;34.07
70684;BME280;58263;48.146;11.440;2023-08-31T12:40:07;95540.88;;;29.74;31.73
70684;BME280;58263;48.146;11.440;2023-08-31T12:42:34;95547.31;;;27.26;34.09
70684;BME280;58263;48.146;11.440;2023-08-31T12:45:00;95544.34;;;26.19;36.28
70684;BME280;58263;48.146;11.440;2023-08-31T12:47:25;95550.75;;;25.80;37.02
70684;BME280;58263;48.146;11.440;2023-08-31T12:49:50;95547.91;;;25.00;39.09
70684;BME280;58263;48.146;11.440;2023-08-31T12:52:16;95551.06;;;24.63;40.08
70684;BME280;58263;48.146;11.440;2023-08-31T12:54:41;95546.81;;;23.60;42.24
70684;BME280;58263;48.146;11.440;2023-08-31T12:57:06;95545.56;;;23.84;42.01
70684;BME280;58263;48.146;11.440;2023-08-31T12:59:32;95553.81;;;24.28;40.95
70684;BME280;58263;48.146;11.440;2023-08-31T13:01:57;95546.19;;;25.25;40.34